createdAt,value
2022-08-14T00:00:37.347Z,7.37
2022-08-14T00:01:41.132Z,7.40
2022-08-14T00:02:47.565Z,7.69
2022-08-14T00:03:55.258Z,8.16
2022-08-14T00:05:05.461Z,7.37
2022-08-14T00:07:18.917Z,7.28
2022-08-14T00:08:44.851Z,7.56
2022-08-14T00:09:27.494Z,7.49
2022-08-14T00:10:51.324Z,7.18
2022-08-14T00:11:39.349Z,7.07
2022-08-14T00:12:56.285Z,7.44
2022-08-14T00:14:02.097Z,7.15
2022-08-14T00:15:08.495Z,7.58
2022-08-14T00:16:13.479Z,7.47
2022-08-14T00:17:19.071Z,7.09
2022-08-14T00:18:30.611Z,7.55
2022-08-14T00:19:38.472Z,6.93
2022-08-14T00:20:46.589Z,7.21
2022-08-14T00:21:55.525Z,7.60
2022-08-14T00:23:16.289Z,6.90
2022-08-14T00:24:13.372Z,6.97
2022-08-14T00:25:19.834Z,7.08
2022-08-14T00:26:27.796Z,7.29
2022-08-14T00:27:35.350Z,7.55
2022-08-14T00:28:41.148Z,7.33
2022-08-14T00:29:47.348Z,7.62
2022-08-14T00:30:59.019Z,7.69
2022-08-14T00:33:15.245Z,7.21
2022-08-14T00:34:37.951Z,7.58
2022-08-14T00:36:35.579Z,7.22
2022-08-14T00:36:36.954Z,6.83
2022-08-14T00:37:44.996Z,7.33
2022-08-14T00:38:50.488Z,7.40
2022-08-14T00:39:56.514Z,7.51
2022-08-14T00:41:02.415Z,7.24
2022-08-14T00:42:21.335Z,6.96
2022-08-14T00:43:17.351Z,7.48
2022-08-14T00:44:32.474Z,7.56
2022-08-14T00:45:31.137Z,7.48
2022-08-14T00:46:35.179Z,7.37
2022-08-14T00:47:43.242Z,6.93
2022-08-14T00:48:49.007Z,7.22
2022-08-14T00:49:55.983Z,7.14
2022-08-14T00:51:01.503Z,6.99
2022-08-14T00:52:04.927Z,7.65
2022-08-14T00:53:10.616Z,7.17
2022-08-14T00:54:22.071Z,7.17
2022-08-14T00:55:23.344Z,7.03
2022-08-14T00:56:31.392Z,7.04
2022-08-14T00:57:37.172Z,7.52
2022-08-14T00:58:48.257Z,7.71
2022-08-14T00:59:47.927Z,6.81
2022-08-14T01:00:57.456Z,6.99
2022-08-14T01:02:01.487Z,7.29
2022-08-14T01:03:08.464Z,7.52
2022-08-14T01:04:38.361Z,6.58
2022-08-14T01:05:26.825Z,6.83
2022-08-14T01:06:34.385Z,6.64
2022-08-14T01:07:50.369Z,6.92
2022-08-14T01:08:52.090Z,7.18
2022-08-14T01:11:11.005Z,7.22
2022-08-14T01:12:26.769Z,7.13
2022-08-14T01:13:42.167Z,7.00
2022-08-14T01:14:41.733Z,6.64
2022-08-14T01:15:58.339Z,6.91
2022-08-14T01:16:52.862Z,6.51
2022-08-14T01:18:14.917Z,6.89
2022-08-14T01:19:23.066Z,6.46
2022-08-14T01:20:47.533Z,6.93
2022-08-14T01:21:53.816Z,6.62
2022-08-14T01:22:58.322Z,6.81
2022-08-14T01:24:03.126Z,6.59
2022-08-14T01:25:11.595Z,7.05
2022-08-14T01:26:23.521Z,6.35
2022-08-14T01:27:29.887Z,6.69
2022-08-14T01:29:58.910Z,7.01
2022-08-14T01:31:00.598Z,6.80
2022-08-14T01:32:10.544Z,6.32
2022-08-14T01:33:14.939Z,7.03
2022-08-14T01:35:20.773Z,6.48
2022-08-14T01:36:03.299Z,6.43
2022-08-14T01:36:42.315Z,6.55
2022-08-14T01:37:56.333Z,6.32
2022-08-14T01:38:59.551Z,6.56
2022-08-14T01:40:03.910Z,6.27
2022-08-14T01:41:14.992Z,6.40
2022-08-14T01:42:31.558Z,6.48
2022-08-14T01:43:27.073Z,6.24
2022-08-14T01:44:34.226Z,6.11
2022-08-14T01:45:40.162Z,6.42
2022-08-14T01:47:00.978Z,6.28
2022-08-14T01:48:03.014Z,6.51
2022-08-14T01:49:07.663Z,6.54
2022-08-14T01:50:12.272Z,6.86
2022-08-14T01:51:24.040Z,6.82
2022-08-14T01:52:34.027Z,6.46
2022-08-14T01:53:36.946Z,6.92
2022-08-14T01:54:41.991Z,6.07
2022-08-14T01:55:49.740Z,5.90
2022-08-14T01:56:57.247Z,7.11
2022-08-14T01:58:19.851Z,6.39
2022-08-14T01:59:18.080Z,6.34
2022-08-14T02:00:18.268Z,6.46
2022-08-14T02:01:21.224Z,6.55
2022-08-14T02:02:28.622Z,6.49
2022-08-14T02:03:41.527Z,6.76
2022-08-14T02:04:56.776Z,6.36
2022-08-14T02:05:54.971Z,6.27
2022-08-14T02:07:01.462Z,7.36
2022-08-14T02:08:10.500Z,6.15
2022-08-14T02:09:19.340Z,6.63
2022-08-14T02:10:26.099Z,6.03
2022-08-14T02:11:29.982Z,6.22
2022-08-14T02:12:34.209Z,5.77
2022-08-14T02:13:38.722Z,6.50
2022-08-14T02:14:59.167Z,6.78
2022-08-14T02:15:55.516Z,5.97
2022-08-14T02:17:00.975Z,6.34
2022-08-14T02:18:08.092Z,6.29
2022-08-14T02:19:20.693Z,6.52
2022-08-14T02:20:27.837Z,6.25
2022-08-14T02:21:43.504Z,6.89
2022-08-14T02:22:47.739Z,6.61
2022-08-14T02:23:48.288Z,6.65
2022-08-14T02:24:54.303Z,6.82
2022-08-14T02:26:24.773Z,6.29
2022-08-14T02:28:21.978Z,6.83
2022-08-14T02:28:56.327Z,6.16
2022-08-14T02:29:30.459Z,6.24
2022-08-14T02:30:38.183Z,6.66
2022-08-14T02:31:48.738Z,6.68
2022-08-14T02:32:53.556Z,6.51
2022-08-14T02:33:56.803Z,6.62
2022-08-14T02:35:01.504Z,6.29
2022-08-14T02:37:03.768Z,6.60
2022-08-14T02:37:13.529Z,6.84
2022-08-14T02:38:29.492Z,6.77
2022-08-14T02:39:25.087Z,6.58
2022-08-14T02:40:35.625Z,6.36
2022-08-14T02:41:52.335Z,6.09
2022-08-14T02:42:55.081Z,6.07
2022-08-14T02:44:00.874Z,6.70
2022-08-14T02:45:06.636Z,6.37
2022-08-14T02:46:12.481Z,6.47
2022-08-14T02:47:22.101Z,6.53
2022-08-14T02:49:03.761Z,6.77
2022-08-14T02:49:37.342Z,6.88
2022-08-14T02:50:43.318Z,6.45
2022-08-14T02:51:50.857Z,6.34
2022-08-14T02:53:03.135Z,6.28
2022-08-14T02:54:06.102Z,5.88
2022-08-14T02:55:19.933Z,6.33
2022-08-14T02:57:13.513Z,6.27
2022-08-14T02:57:39.267Z,5.73
2022-08-14T02:58:41.849Z,6.32
2022-08-14T02:59:47.182Z,6.43
2022-08-14T03:00:51.211Z,6.54
2022-08-14T03:01:58.914Z,6.37
2022-08-14T03:03:07.879Z,6.35
2022-08-14T03:04:14.141Z,6.73
2022-08-14T03:05:20.212Z,6.64
2022-08-14T03:06:48.943Z,7.07
2022-08-14T03:07:38.250Z,6.22
2022-08-14T03:08:46.170Z,6.31
2022-08-14T03:10:27.917Z,6.42
2022-08-14T03:10:57.839Z,6.72
2022-08-14T03:12:05.920Z,6.21
2022-08-14T03:13:13.694Z,6.44
2022-08-14T03:14:15.477Z,6.53
2022-08-14T03:15:20.928Z,6.74
2022-08-14T03:16:27.799Z,6.57
2022-08-14T03:17:56.094Z,7.13
2022-08-14T03:18:48.640Z,6.40
2022-08-14T03:19:54.875Z,6.43
2022-08-14T03:21:09.248Z,6.06
2022-08-14T03:22:17.733Z,6.29
2022-08-14T03:23:21.835Z,6.41
2022-08-14T03:24:26.182Z,6.26
2022-08-14T03:25:37.835Z,7.02
2022-08-14T03:26:46.490Z,6.36
2022-08-14T03:27:58.976Z,6.27
2022-08-14T03:29:01.152Z,6.21
2022-08-14T03:30:14.553Z,7.50
2022-08-14T03:31:16.085Z,6.68
2022-08-14T03:32:20.004Z,6.56
2022-08-14T03:33:26.919Z,6.59
2022-08-14T03:34:48.399Z,6.03
2022-08-14T03:35:39.781Z,6.03
2022-08-14T03:37:38.387Z,6.26
2022-08-14T03:39:15.409Z,6.30
2022-08-14T03:39:16.102Z,6.31
2022-08-14T03:40:11.404Z,6.41
2022-08-14T03:41:22.954Z,6.50
2022-08-14T03:42:35.804Z,6.51
2022-08-14T03:43:37.755Z,5.78
2022-08-14T03:45:25.166Z,5.99
2022-08-14T03:45:49.227Z,6.61
2022-08-14T03:46:56.059Z,6.43
2022-08-14T03:48:03.035Z,7.01
2022-08-14T03:49:07.049Z,6.42
2022-08-14T03:50:14.569Z,6.54
2022-08-14T03:51:20.022Z,6.40
2022-08-14T03:52:40.536Z,6.54
2022-08-14T03:53:31.299Z,6.43
2022-08-14T03:54:35.210Z,6.99
2022-08-14T03:55:45.060Z,6.94
2022-08-14T03:56:51.233Z,6.22
2022-08-14T03:57:57.560Z,6.94
2022-08-14T03:59:17.593Z,6.51
2022-08-14T04:00:40.471Z,6.73
2022-08-14T04:01:29.165Z,6.83
2022-08-14T04:02:37.409Z,6.91
2022-08-14T04:03:44.318Z,6.71
2022-08-14T04:04:50.928Z,6.68
2022-08-14T04:05:56.587Z,6.88
2022-08-14T04:07:03.248Z,6.64
2022-08-14T04:08:23.066Z,6.41
2022-08-14T04:09:17.863Z,6.42
2022-08-14T04:10:32.081Z,6.37
2022-08-14T04:11:35.904Z,6.32
2022-08-14T04:12:42.870Z,6.71
2022-08-14T04:13:51.029Z,6.46
2022-08-14T04:14:54.617Z,6.71
2022-08-14T04:16:04.819Z,6.69
2022-08-14T04:17:10.113Z,6.60
2022-08-14T04:18:14.694Z,6.50
2022-08-14T04:19:21.031Z,6.29
2022-08-14T04:20:28.030Z,6.23
2022-08-14T04:21:40.020Z,6.31
2022-08-14T04:22:43.342Z,6.59
2022-08-14T04:23:57.525Z,6.77
2022-08-14T04:24:54.662Z,6.22
2022-08-14T04:25:58.444Z,6.55
2022-08-14T04:27:03.417Z,6.08
2022-08-14T04:28:08.287Z,5.92
2022-08-14T04:29:17.791Z,6.19
2022-08-14T04:30:25.036Z,6.36
2022-08-14T04:32:57.387Z,6.24
2022-08-14T04:32:58.748Z,6.53
2022-08-14T04:33:39.191Z,5.96
2022-08-14T04:34:42.991Z,6.71
2022-08-14T04:35:56.295Z,5.87
2022-08-14T04:37:24.523Z,6.69
2022-08-14T04:38:47.111Z,6.52
2022-08-14T04:41:30.472Z,6.14
2022-08-14T04:42:51.752Z,6.43
2022-08-14T04:43:57.190Z,6.11
2022-08-14T04:45:00.830Z,5.95
2022-08-14T04:46:11.818Z,6.64
2022-08-14T04:47:37.017Z,6.45
2022-08-14T04:48:43.269Z,6.33
2022-08-14T04:49:57.237Z,6.39
2022-08-14T04:50:58.005Z,6.51
2022-08-14T04:53:26.305Z,6.51
2022-08-14T04:54:33.344Z,5.95
2022-08-14T04:55:38.148Z,7.08
2022-08-14T04:56:41.224Z,6.31
2022-08-14T04:57:48.227Z,6.08
2022-08-14T04:59:03.747Z,6.54
2022-08-14T05:00:16.248Z,5.94
2022-08-14T05:01:22.254Z,6.18
2022-08-14T05:02:30.595Z,6.32
2022-08-14T05:03:39.093Z,6.51
2022-08-14T05:04:45.158Z,6.84
2022-08-14T05:05:50.620Z,5.88
2022-08-14T05:06:56.336Z,6.12
2022-08-14T05:08:50.538Z,6.76
2022-08-14T05:09:29.170Z,5.93
2022-08-14T05:10:32.583Z,6.17
2022-08-14T05:11:39.818Z,6.28
2022-08-14T05:13:10.990Z,6.32
2022-08-14T05:14:56.812Z,6.55
2022-08-14T05:16:03.647Z,6.22
2022-08-14T05:17:10.416Z,6.98
2022-08-14T05:18:17.298Z,6.75
2022-08-14T05:19:27.055Z,6.19
2022-08-14T05:21:05.013Z,6.28
2022-08-14T05:21:59.395Z,5.36
2022-08-14T05:22:45.470Z,6.45
2022-08-14T05:23:48.921Z,6.58
2022-08-14T05:24:53.240Z,6.33
2022-08-14T05:26:04.056Z,5.81
2022-08-14T05:27:11.404Z,6.62
2022-08-14T05:28:21.271Z,6.31
2022-08-14T05:29:27.493Z,5.76
2022-08-14T05:30:34.052Z,5.82
2022-08-14T05:31:42.701Z,6.58
2022-08-14T05:32:46.827Z,5.86
2022-08-14T05:33:56.560Z,6.22
2022-08-14T05:35:00.184Z,5.76
2022-08-14T05:36:07.248Z,6.29
2022-08-14T05:37:19.967Z,6.18
2022-08-14T05:38:30.966Z,6.28
2022-08-14T05:39:32.477Z,5.73
2022-08-14T05:40:35.941Z,6.04
2022-08-14T05:41:53.511Z,6.82
2022-08-14T05:42:52.864Z,5.97
2022-08-14T05:43:55.366Z,6.58
2022-08-14T05:44:58.836Z,6.15
2022-08-14T05:46:09.729Z,6.13
2022-08-14T05:47:14.468Z,6.14
2022-08-14T05:48:32.685Z,6.30
2022-08-14T05:49:33.036Z,6.50
2022-08-14T05:50:38.269Z,6.21
2022-08-14T05:51:48.369Z,5.99
2022-08-14T05:53:01.548Z,6.17
2022-08-14T05:55:22.907Z,6.74
2022-08-14T05:56:28.424Z,6.19
2022-08-14T05:57:33.034Z,6.26
2022-08-14T05:58:41.439Z,6.16
2022-08-14T05:59:43.121Z,5.76
2022-08-14T06:00:49.347Z,5.92
2022-08-14T06:01:53.861Z,6.33
2022-08-14T06:03:04.161Z,6.29
2022-08-14T06:04:07.379Z,6.29
2022-08-14T06:05:11.976Z,6.53
2022-08-14T06:06:19.224Z,6.43
2022-08-14T06:07:21.965Z,6.43
2022-08-14T06:08:36.701Z,5.89
2022-08-14T06:09:40.643Z,6.30
2022-08-14T06:10:45.658Z,6.34
2022-08-14T06:11:51.056Z,6.41
2022-08-14T06:13:01.037Z,6.33
2022-08-14T06:14:04.508Z,6.28
2022-08-14T06:15:11.201Z,6.57
2022-08-14T06:16:18.930Z,6.19
2022-08-14T06:17:25.932Z,6.34
2022-08-14T06:18:31.987Z,6.52
2022-08-14T06:19:35.310Z,6.44
2022-08-14T06:20:39.999Z,5.98
2022-08-14T06:21:43.890Z,6.36
2022-08-14T06:22:49.741Z,6.46
2022-08-14T06:23:53.399Z,6.20
2022-08-14T06:24:57.727Z,6.19
2022-08-14T06:26:01.340Z,6.16
2022-08-14T06:27:10.797Z,5.99
2022-08-14T06:28:27.154Z,5.96
2022-08-14T06:29:32.009Z,6.62
2022-08-14T06:30:46.118Z,6.65
2022-08-14T06:31:39.828Z,6.75
2022-08-14T06:32:45.756Z,6.11
2022-08-14T06:35:03.458Z,5.64
2022-08-14T06:35:04.398Z,5.93
2022-08-14T06:36:05.516Z,6.09
2022-08-14T06:37:08.697Z,6.19
2022-08-14T06:38:23.535Z,6.01
2022-08-14T06:40:43.040Z,6.67
2022-08-14T06:41:57.626Z,5.99
2022-08-14T06:42:51.572Z,6.29
2022-08-14T06:44:02.282Z,6.23
2022-08-14T06:45:08.603Z,6.16
2022-08-14T06:46:12.921Z,6.04
2022-08-14T06:47:17.556Z,5.98
2022-08-14T06:48:25.598Z,6.36
2022-08-14T06:49:40.168Z,6.21
2022-08-14T06:50:39.873Z,5.74
2022-08-14T06:51:45.098Z,6.01
2022-08-14T06:52:50.283Z,5.94
2022-08-14T06:53:55.982Z,6.18
2022-08-14T06:55:01.469Z,6.22
2022-08-14T06:56:08.558Z,6.05
2022-08-14T06:57:14.455Z,5.98
2022-08-14T06:58:24.721Z,6.09
2022-08-14T06:59:29.365Z,6.41
2022-08-14T07:00:34.232Z,5.62
2022-08-14T07:01:58.876Z,6.23
2022-08-14T07:03:21.830Z,6.11
2022-08-14T07:04:43.308Z,5.89
2022-08-14T07:05:55.804Z,6.19
2022-08-14T07:06:59.012Z,5.99
2022-08-14T07:09:16.835Z,5.78
2022-08-14T07:10:25.342Z,5.59
2022-08-14T07:11:27.765Z,5.94
2022-08-14T07:13:01.999Z,5.87
2022-08-14T07:13:40.740Z,5.79
2022-08-14T07:14:45.721Z,5.30
2022-08-14T07:15:55.100Z,5.81
2022-08-14T07:17:00.332Z,5.62
2022-08-14T07:18:08.716Z,5.74
2022-08-14T07:19:11.416Z,5.81
2022-08-14T07:20:20.102Z,5.85
2022-08-14T07:21:26.159Z,5.50
2022-08-14T07:22:32.895Z,6.00
2022-08-14T07:23:40.214Z,5.79
2022-08-14T07:26:03.811Z,5.27
2022-08-14T07:27:14.740Z,5.44
2022-08-14T07:28:24.685Z,5.93
2022-08-14T07:29:29.902Z,5.58
2022-08-14T07:30:35.890Z,5.51
2022-08-14T07:31:44.145Z,5.39
2022-08-14T07:32:51.397Z,5.71
2022-08-14T07:33:54.308Z,5.69
2022-08-14T07:34:57.736Z,5.86
2022-08-14T07:36:26.576Z,5.72
2022-08-14T07:37:11.792Z,5.78
2022-08-14T07:38:24.488Z,5.57
2022-08-14T07:39:28.736Z,5.96
2022-08-14T07:40:36.176Z,5.70
2022-08-14T07:41:47.514Z,5.79
2022-08-14T07:42:52.756Z,5.61
2022-08-14T07:43:57.701Z,5.31
2022-08-14T07:45:04.609Z,5.55
2022-08-14T07:46:09.362Z,5.82
2022-08-14T07:47:13.740Z,5.74
2022-08-14T07:48:17.592Z,5.50
2022-08-14T07:49:24.202Z,5.67
2022-08-14T07:50:40.308Z,5.93
2022-08-14T07:51:50.751Z,5.53
2022-08-14T07:52:54.907Z,6.01
2022-08-14T07:53:59.976Z,5.81
2022-08-14T07:55:08.633Z,5.79
2022-08-14T07:56:44.250Z,5.48
2022-08-14T07:57:22.459Z,5.57
2022-08-14T07:58:31.645Z,5.49
2022-08-14T07:59:41.028Z,5.53
2022-08-14T08:00:37.366Z,5.45
2022-08-14T08:01:48.369Z,5.38
2022-08-14T08:02:55.899Z,5.71
2022-08-14T08:04:04.627Z,5.87
2022-08-14T08:05:12.532Z,5.42
2022-08-14T08:06:20.348Z,5.46
2022-08-14T08:07:30.099Z,5.06
2022-08-14T08:08:36.021Z,5.49
2022-08-14T08:09:48.163Z,5.27
2022-08-14T08:11:02.923Z,5.80
2022-08-14T08:12:09.378Z,5.42
2022-08-14T08:13:16.487Z,5.30
2022-08-14T08:14:21.612Z,5.42
2022-08-14T08:16:38.750Z,5.58
2022-08-14T08:17:53.671Z,5.52
2022-08-14T08:18:48.534Z,5.68
2022-08-14T08:19:52.225Z,5.44
2022-08-14T08:20:59.357Z,5.18
2022-08-14T08:22:04.655Z,5.11
2022-08-14T08:23:20.682Z,5.34
2022-08-14T08:24:21.094Z,5.24
2022-08-14T08:25:26.497Z,5.57
2022-08-14T08:26:32.627Z,5.24
2022-08-14T08:27:39.138Z,5.73
2022-08-14T08:28:44.777Z,5.46
2022-08-14T08:29:50.766Z,5.52
2022-08-14T08:31:01.577Z,5.33
2022-08-14T08:32:06.244Z,5.37
2022-08-14T08:33:12.267Z,5.02
2022-08-14T08:34:18.226Z,5.17
2022-08-14T08:35:24.132Z,5.67
2022-08-14T08:36:29.926Z,5.33
2022-08-14T08:37:40.023Z,5.31
2022-08-14T08:39:18.185Z,5.64
2022-08-14T08:40:02.333Z,5.77
2022-08-14T08:41:02.008Z,5.77
2022-08-14T08:42:07.019Z,5.71
2022-08-14T08:43:35.470Z,5.47
2022-08-14T08:44:40.607Z,5.32
2022-08-14T08:47:11.488Z,5.63
2022-08-14T08:48:18.085Z,5.59
2022-08-14T08:49:21.031Z,5.80
2022-08-14T08:51:43.026Z,5.43
2022-08-14T08:52:59.419Z,5.44
2022-08-14T08:54:18.252Z,5.44
2022-08-14T08:55:19.707Z,5.62
2022-08-14T08:56:46.124Z,5.18
2022-08-14T08:57:55.188Z,5.36
2022-08-14T08:58:58.741Z,5.32
2022-08-14T09:00:03.137Z,5.04
2022-08-14T09:01:09.250Z,5.44
2022-08-14T09:02:21.227Z,5.27
2022-08-14T09:03:30.340Z,5.61
2022-08-14T09:04:45.264Z,5.68
2022-08-14T09:06:53.658Z,5.44
2022-08-14T09:07:13.243Z,5.24
2022-08-14T09:09:34.551Z,5.63
2022-08-14T09:10:40.489Z,5.14
2022-08-14T09:11:45.704Z,5.63
2022-08-14T09:12:53.216Z,5.57
2022-08-14T09:13:58.671Z,5.18
2022-08-14T09:15:12.040Z,5.35
2022-08-14T09:16:19.849Z,5.18
2022-08-14T09:17:25.860Z,5.01
2022-08-14T09:18:29.435Z,5.18
2022-08-14T09:19:36.286Z,5.41
2022-08-14T09:20:43.903Z,5.29
2022-08-14T09:21:48.481Z,5.50
2022-08-14T09:22:56.830Z,5.05
2022-08-14T09:24:28.867Z,5.21
2022-08-14T09:25:08.928Z,5.16
2022-08-14T09:26:21.035Z,5.26
2022-08-14T09:27:22.471Z,5.44
2022-08-14T09:28:26.820Z,5.53
2022-08-14T09:29:32.230Z,5.20
2022-08-14T09:30:39.501Z,5.18
2022-08-14T09:31:53.371Z,5.22
2022-08-14T09:33:10.961Z,4.97
2022-08-14T09:34:28.230Z,4.98
2022-08-14T09:35:42.615Z,4.98
2022-08-14T09:40:03.676Z,5.34
2022-08-14T09:41:36.815Z,5.06
2022-08-14T09:42:50.368Z,5.22
2022-08-14T09:44:25.222Z,5.26
2022-08-14T09:45:53.567Z,5.11
2022-08-14T09:46:57.949Z,4.94
2022-08-14T09:48:06.655Z,4.92
2022-08-14T09:49:17.031Z,4.93
2022-08-14T09:50:33.387Z,5.06
2022-08-14T09:51:44.928Z,4.59
2022-08-14T09:52:57.856Z,5.02
2022-08-14T09:54:19.207Z,5.47
2022-08-14T09:55:22.458Z,5.14
2022-08-14T09:56:30.888Z,5.18
2022-08-14T09:57:33.416Z,4.77
2022-08-14T09:58:46.534Z,4.92
2022-08-14T09:59:50.394Z,4.86
2022-08-14T10:01:02.031Z,4.89
2022-08-14T10:02:24.812Z,4.96
2022-08-14T10:03:34.326Z,5.11
2022-08-14T10:05:49.153Z,5.37
2022-08-14T10:06:54.072Z,5.11
2022-08-14T10:08:01.279Z,4.99
2022-08-14T10:09:12.018Z,4.92
2022-08-14T10:10:23.276Z,4.88
2022-08-14T10:11:25.202Z,4.77
2022-08-14T10:12:58.310Z,5.00
2022-08-14T10:14:05.219Z,5.19
2022-08-14T10:15:22.639Z,4.69
2022-08-14T10:16:33.708Z,4.85
2022-08-14T10:17:38.873Z,4.64
2022-08-14T10:18:42.495Z,4.52
2022-08-14T10:19:49.297Z,4.95
2022-08-14T10:21:00.654Z,5.01
2022-08-14T10:23:13.183Z,4.99
2022-08-14T10:23:20.950Z,5.11
2022-08-14T10:25:51.133Z,5.08
2022-08-14T10:27:01.101Z,4.57
2022-08-14T10:28:04.942Z,5.42
2022-08-14T10:29:19.802Z,5.06
2022-08-14T10:30:25.715Z,4.81
2022-08-14T10:31:43.145Z,4.94
2022-08-14T10:32:51.474Z,5.14
2022-08-14T10:34:12.892Z,5.28
2022-08-14T10:35:16.399Z,5.09
2022-08-14T10:36:37.260Z,5.14
2022-08-14T10:37:45.897Z,5.26
2022-08-14T10:38:54.623Z,4.98
2022-08-14T10:40:10.252Z,5.33
2022-08-14T10:41:17.294Z,4.47
2022-08-14T10:42:22.717Z,5.14
2022-08-14T10:43:31.846Z,4.83
2022-08-14T10:44:38.513Z,4.93
2022-08-14T10:45:59.735Z,4.95
2022-08-14T10:47:41.475Z,5.19
2022-08-14T10:48:24.568Z,5.04
2022-08-14T10:49:25.672Z,5.26
2022-08-14T10:50:38.994Z,4.91
2022-08-14T10:51:43.787Z,4.81
2022-08-14T10:52:53.660Z,4.93
2022-08-14T10:53:58.373Z,4.88
2022-08-14T10:55:14.599Z,5.03
2022-08-14T10:56:32.210Z,4.77
2022-08-14T10:57:32.170Z,5.12
2022-08-14T10:58:38.924Z,5.21
2022-08-14T10:59:46.043Z,5.04
2022-08-14T11:00:59.925Z,5.64
2022-08-14T11:02:04.315Z,5.14
2022-08-14T11:03:20.024Z,5.55
2022-08-14T11:04:27.663Z,5.05
2022-08-14T11:05:54.997Z,4.83
2022-08-14T11:06:57.291Z,4.78
2022-08-14T11:08:09.217Z,4.62
2022-08-14T11:09:13.711Z,4.81
2022-08-14T11:10:19.507Z,4.94
2022-08-14T11:11:26.171Z,4.71
2022-08-14T11:12:47.439Z,4.85
2022-08-14T11:13:50.807Z,4.94
2022-08-14T11:14:59.765Z,4.52
2022-08-14T11:16:05.755Z,4.53
2022-08-14T11:17:11.192Z,4.90
2022-08-14T11:18:20.593Z,4.63
2022-08-14T11:19:26.894Z,4.38
2022-08-14T11:20:31.736Z,4.47
2022-08-14T11:21:40.694Z,4.59
2022-08-14T11:22:56.094Z,4.44
2022-08-14T11:23:59.642Z,4.41
2022-08-14T11:25:06.613Z,4.62
2022-08-14T11:26:11.715Z,4.53
2022-08-14T11:27:18.974Z,4.62
2022-08-14T11:28:47.356Z,4.79
2022-08-14T11:29:38.178Z,4.94
2022-08-14T11:56:13.652Z,4.81
2022-08-14T11:57:22.891Z,5.46
2022-08-14T11:58:34.655Z,5.15
2022-08-14T12:00:56.326Z,4.93
2022-08-14T12:03:00.706Z,5.05
2022-08-14T12:03:37.205Z,4.85
2022-08-14T12:04:33.109Z,5.59
2022-08-14T12:05:40.498Z,5.10
2022-08-14T12:06:53.526Z,4.79
2022-08-14T12:07:57.922Z,4.87
2022-08-14T12:09:00.957Z,5.21
2022-08-14T12:10:27.405Z,5.11
2022-08-14T12:11:14.481Z,5.08
2022-08-14T12:12:35.704Z,4.95
2022-08-14T12:13:36.837Z,4.66
2022-08-14T12:14:54.934Z,5.01
2022-08-14T12:16:20.502Z,5.28
2022-08-14T12:17:24.246Z,5.09
2022-08-14T12:18:42.107Z,5.21
2022-08-14T12:19:56.471Z,5.36
2022-08-14T12:21:23.741Z,5.29
2022-08-14T12:22:35.071Z,5.17
2022-08-14T12:23:43.126Z,5.01
2022-08-14T12:24:53.129Z,5.18
2022-08-14T12:26:32.038Z,5.41
2022-08-14T12:27:16.909Z,5.26
2022-08-14T12:29:32.205Z,5.94
2022-08-14T12:30:43.707Z,5.18
2022-08-14T12:31:51.653Z,5.49
2022-08-14T12:33:11.544Z,5.28
2022-08-14T12:34:22.876Z,5.28
2022-08-14T12:35:44.990Z,4.92
2022-08-14T12:36:48.837Z,5.46
2022-08-14T12:37:52.644Z,5.19
2022-08-14T12:38:56.128Z,4.89
2022-08-14T12:40:20.651Z,5.01
2022-08-14T12:41:28.119Z,5.53
2022-08-14T12:42:41.802Z,4.98
2022-08-14T12:43:52.719Z,5.35
2022-08-14T12:44:57.893Z,5.45
2022-08-14T12:46:02.516Z,5.14
2022-08-14T12:47:15.010Z,5.68
2022-08-14T12:48:21.675Z,5.19
2022-08-14T12:49:25.816Z,5.66
2022-08-14T12:50:38.888Z,5.51
2022-08-14T12:51:47.060Z,5.43
2022-08-14T12:53:02.197Z,5.35
2022-08-14T12:53:59.509Z,5.19
2022-08-14T12:55:08.627Z,5.58
2022-08-14T12:56:33.134Z,5.24
2022-08-14T12:57:37.462Z,5.51
2022-08-14T12:58:51.642Z,5.65
2022-08-14T12:59:50.693Z,5.25
2022-08-14T13:01:16.370Z,5.68
2022-08-14T13:02:11.535Z,5.56
2022-08-14T13:03:26.996Z,5.36
2022-08-14T13:04:31.872Z,5.19
2022-08-14T13:05:40.134Z,5.94
2022-08-14T13:06:50.827Z,5.70
2022-08-14T13:07:55.984Z,5.83
2022-08-14T13:09:02.429Z,5.77
2022-08-14T13:10:47.604Z,5.87
2022-08-14T13:11:17.913Z,5.67
2022-08-14T13:12:43.076Z,5.77
2022-08-14T13:13:48.962Z,5.32
2022-08-14T13:14:54.733Z,5.07
2022-08-14T13:16:02.652Z,5.71
2022-08-14T13:17:13.470Z,5.19
2022-08-14T13:18:17.199Z,5.69
2022-08-14T13:19:24.447Z,5.46
2022-08-14T13:20:30.748Z,5.71
2022-08-14T13:21:58.861Z,4.74
2022-08-14T13:22:46.567Z,5.62
2022-08-14T13:23:52.927Z,4.94
2022-08-14T13:24:58.600Z,5.34
2022-08-14T13:26:02.844Z,5.48
2022-08-14T13:27:11.415Z,5.39
2022-08-14T13:28:30.123Z,5.39
2022-08-14T13:29:29.641Z,5.71
2022-08-14T13:30:38.952Z,5.59
2022-08-14T13:31:47.824Z,5.38
2022-08-14T13:32:59.575Z,5.26
2022-08-14T13:34:06.992Z,5.54
2022-08-14T13:35:17.485Z,5.52
2022-08-14T13:36:23.941Z,5.36
2022-08-14T13:37:28.462Z,5.39
2022-08-14T13:38:33.120Z,5.90
2022-08-14T13:39:38.095Z,5.42
2022-08-14T13:40:43.780Z,5.57
2022-08-14T13:41:55.952Z,5.19
2022-08-14T13:42:57.652Z,5.43
2022-08-14T13:44:02.031Z,5.25
2022-08-14T13:45:08.678Z,5.45
2022-08-14T13:46:15.969Z,4.99
2022-08-14T13:47:22.754Z,5.16
2022-08-14T13:49:56.742Z,5.23
2022-08-14T13:50:45.374Z,5.12
2022-08-14T13:51:54.402Z,5.11
2022-08-14T13:53:02.247Z,5.03
2022-08-14T13:54:11.111Z,5.43
2022-08-14T13:55:18.647Z,5.42
2022-08-14T13:57:49.632Z,5.34
2022-08-14T13:58:54.800Z,5.16
2022-08-14T14:00:06.079Z,5.56
2022-08-14T14:01:19.252Z,5.19
2022-08-14T14:02:34.070Z,5.39
2022-08-14T14:03:36.970Z,5.52
2022-08-14T14:04:46.382Z,5.64
2022-08-14T14:05:54.283Z,5.74
2022-08-14T14:07:10.501Z,5.64
2022-08-14T14:08:46.565Z,5.81
2022-08-14T14:09:32.445Z,6.09
2022-08-14T14:10:39.282Z,5.74
2022-08-14T14:11:44.171Z,6.01
2022-08-14T14:12:56.257Z,5.79
2022-08-14T14:14:00.830Z,6.62
2022-08-14T14:15:07.285Z,6.56
2022-08-14T14:16:26.135Z,6.96
2022-08-14T14:17:29.054Z,6.92
2022-08-14T14:18:37.508Z,7.12
2022-08-14T14:19:47.958Z,6.66
2022-08-14T14:20:52.584Z,6.97
2022-08-14T14:21:58.810Z,6.76
2022-08-14T14:23:11.578Z,6.92
2022-08-14T14:24:14.903Z,6.43
2022-08-14T14:25:19.440Z,5.83
2022-08-14T14:26:26.853Z,6.17
2022-08-14T14:27:41.494Z,6.02
2022-08-14T14:28:43.521Z,6.14
2022-08-14T14:29:55.558Z,6.92
2022-08-14T14:31:06.680Z,6.12
2022-08-14T14:32:17.437Z,6.19
2022-08-14T14:33:44.793Z,5.67
2022-08-14T14:34:30.005Z,5.62
2022-08-14T14:35:39.565Z,5.81
2022-08-14T14:36:49.902Z,5.65
2022-08-14T14:37:52.858Z,5.60
2022-08-14T14:40:52.817Z,5.33
2022-08-14T14:41:30.761Z,5.76
2022-08-14T14:42:38.964Z,5.28
2022-08-14T14:43:46.324Z,5.42
2022-08-14T14:44:56.545Z,5.08
2022-08-14T14:46:00.787Z,5.27
2022-08-14T14:47:23.290Z,4.72
2022-08-14T14:48:31.063Z,4.46
2022-08-14T14:49:51.595Z,5.02
2022-08-14T14:50:42.377Z,4.69
2022-08-14T14:51:54.650Z,5.04
2022-08-14T14:53:12.445Z,5.04
2022-08-14T14:54:08.351Z,4.93
2022-08-14T14:56:49.377Z,4.48
2022-08-14T14:57:35.066Z,4.82
2022-08-14T14:58:41.107Z,5.01
2022-08-14T14:59:47.779Z,4.59
2022-08-14T15:00:59.671Z,4.77
2022-08-14T15:02:09.612Z,4.91
2022-08-14T15:03:15.490Z,4.81
2022-08-14T15:04:21.390Z,4.74
2022-08-14T15:05:28.487Z,5.11
2022-08-14T15:06:33.579Z,4.67
2022-08-14T15:07:39.223Z,4.78
2022-08-14T15:08:56.716Z,4.94
2022-08-14T15:09:48.548Z,4.98
2022-08-14T15:10:53.637Z,4.66
2022-08-14T15:11:58.114Z,5.64
2022-08-14T15:13:04.307Z,5.10
2022-08-14T15:14:55.246Z,5.03
2022-08-14T15:15:16.411Z,4.92
2022-08-14T15:16:22.404Z,5.63
2022-08-14T15:17:35.353Z,4.67
2022-08-14T15:18:46.415Z,4.92
2022-08-14T15:19:56.765Z,4.82
2022-08-14T15:21:03.002Z,4.82
2022-08-14T15:22:08.206Z,5.24
2022-08-14T15:23:13.489Z,5.13
2022-08-14T15:24:24.456Z,4.75
2022-08-14T15:25:23.553Z,4.67
2022-08-14T15:26:31.634Z,5.07
2022-08-14T15:27:33.838Z,5.29
2022-08-14T15:28:41.176Z,4.86
2022-08-14T15:30:09.884Z,4.81
2022-08-14T15:31:15.030Z,4.92
2022-08-14T15:32:23.040Z,5.17
2022-08-14T15:34:01.016Z,4.99
2022-08-14T15:34:52.967Z,4.97
2022-08-14T15:35:57.306Z,4.81
2022-08-14T15:37:05.695Z,4.55
2022-08-14T15:38:09.015Z,5.12
2022-08-14T15:39:23.195Z,4.61
2022-08-14T15:40:27.327Z,5.02
2022-08-14T15:41:41.520Z,4.68
2022-08-14T15:43:58.146Z,4.91
2022-08-14T15:45:02.280Z,4.70
2022-08-14T15:46:09.318Z,4.69
2022-08-14T15:47:14.456Z,4.79
2022-08-14T15:48:22.751Z,5.08
2022-08-14T15:49:33.244Z,5.26
2022-08-14T15:50:35.558Z,4.94
2022-08-14T15:51:42.329Z,5.08
2022-08-14T15:52:44.849Z,5.44
2022-08-14T15:53:50.498Z,4.95
2022-08-14T15:54:56.111Z,5.00
2022-08-14T15:55:58.831Z,5.21
2022-08-14T15:57:08.453Z,4.57
2022-08-14T15:58:14.491Z,5.29
2022-08-14T15:59:18.122Z,5.38
2022-08-14T16:00:49.993Z,5.24
2022-08-14T16:01:55.096Z,4.81
2022-08-14T16:03:00.068Z,5.33
2022-08-14T16:04:04.618Z,5.40
2022-08-14T16:05:09.851Z,5.20
2022-08-14T16:06:26.183Z,5.10